createdAt,value
2022-10-23T00:01:26.761Z,100968.80
2022-10-23T00:03:56.012Z,100968.14
2022-10-23T00:06:24.419Z,100961.13
2022-10-23T00:08:52.145Z,100961.39
2022-10-23T00:11:21.048Z,100964.88
2022-10-23T00:13:48.804Z,100968.55
2022-10-23T00:16:16.885Z,100961.79
2022-10-23T00:18:45.826Z,100963.64
2022-10-23T00:21:14.058Z,100967.63
2022-10-23T00:23:42.035Z,100962.16
2022-10-23T00:26:11.569Z,100956.34
2022-10-23T00:28:39.293Z,100954.01
2022-10-23T00:31:07.078Z,100952.44
2022-10-23T00:33:34.924Z,100950.40
2022-10-23T00:36:07.003Z,100948.46
2022-10-23T00:38:34.902Z,100948.14
2022-10-23T00:41:03.581Z,100949.04
2022-10-23T00:43:31.768Z,100947.59
2022-10-23T00:45:59.380Z,100945.54
2022-10-23T00:48:28.236Z,100943.77
2022-10-23T00:50:55.972Z,100953.06
2022-10-23T00:53:25.281Z,100953.20
2022-10-23T00:55:54.974Z,100958.54
2022-10-23T00:58:22.865Z,100957.30
2022-10-23T01:00:52.686Z,100960.55
2022-10-23T01:03:23.381Z,100965.69
2022-10-23T01:06:00.356Z,100966.27
2022-10-23T01:08:32.225Z,100964.34
2022-10-23T01:11:06.080Z,100962.60
2022-10-23T01:13:50.731Z,100964.38
2022-10-23T01:16:29.515Z,100964.38
2022-10-23T01:19:12.159Z,100962.66
2022-10-23T01:21:58.931Z,100956.45
2022-10-23T01:24:48.261Z,100958.96
2022-10-23T01:27:15.954Z,100953.06
2022-10-23T01:29:51.826Z,100953.77
2022-10-23T01:32:27.871Z,100951.75
2022-10-23T01:35:03.431Z,100948.78
2022-10-23T01:37:35.380Z,100950.63
2022-10-23T01:40:09.513Z,100953.71
2022-10-23T01:42:39.916Z,100954.95
2022-10-23T01:45:13.567Z,100959.10
2022-10-23T01:47:45.311Z,100959.98
2022-10-23T01:50:16.073Z,100963.11
2022-10-23T01:52:46.318Z,100966.34
2022-10-23T01:55:14.775Z,100968.65
2022-10-23T01:57:44.991Z,100970.88
2022-10-23T02:00:15.302Z,100975.06
2022-10-23T02:02:52.609Z,100974.95
2022-10-23T02:05:24.143Z,100970.52
2022-10-23T02:07:52.880Z,100970.66
2022-10-23T02:10:21.303Z,100972.86
2022-10-23T02:12:54.266Z,100971.18
2022-10-23T02:15:22.009Z,100971.45
2022-10-23T02:18:09.828Z,100975.61
2022-10-23T02:23:25.872Z,100975.13
2022-10-23T02:25:55.920Z,100976.84
2022-10-23T02:28:26.355Z,100975.47
2022-10-23T02:30:59.101Z,100975.23
2022-10-23T02:33:28.166Z,100980.67
2022-10-23T02:35:56.168Z,100987.89
2022-10-23T02:38:36.507Z,100984.34
2022-10-23T02:41:11.155Z,100987.88
2022-10-23T02:43:57.582Z,100990.86
2022-10-23T02:46:42.934Z,100992.58
2022-10-23T02:49:19.001Z,100989.48
2022-10-23T02:51:49.658Z,100992.92
2022-10-23T02:54:37.185Z,100992.67
2022-10-23T02:57:27.559Z,100989.35
2022-10-23T03:00:01.331Z,100989.11
2022-10-23T03:05:09.155Z,100997.79
2022-10-23T03:07:37.281Z,100991.77
2022-10-23T03:10:08.002Z,100984.73
2022-10-23T03:12:35.729Z,100981.77
2022-10-23T03:15:06.051Z,100983.10
2022-10-23T03:17:33.758Z,100992.90
2022-10-23T03:20:01.788Z,100988.19
2022-10-23T03:22:29.502Z,100988.49
2022-10-23T03:24:57.355Z,100993.95
2022-10-23T03:27:25.059Z,100992.16
2022-10-23T03:29:55.503Z,100993.88
2022-10-23T03:32:23.421Z,100996.23
2022-10-23T03:34:51.377Z,100998.83
2022-10-23T03:37:19.130Z,101004.68
2022-10-23T03:39:46.762Z,101004.20
2022-10-23T03:42:14.518Z,101004.17
2022-10-23T03:44:42.241Z,101007.17
2022-10-23T03:47:11.972Z,101008.31
2022-10-23T03:49:39.613Z,101008.95
2022-10-23T03:52:07.885Z,101007.52
2022-10-23T03:54:36.185Z,101006.23
2022-10-23T03:57:03.954Z,101005.59
2022-10-23T03:59:31.586Z,101010.16
2022-10-23T04:01:59.861Z,101012.25
2022-10-23T04:04:28.307Z,101013.59
2022-10-23T04:06:56.097Z,101010.54
2022-10-23T04:09:24.642Z,101004.77
2022-10-23T04:11:52.306Z,101002.85
2022-10-23T04:14:19.995Z,101004.27
2022-10-23T04:16:48.347Z,101004.81
2022-10-23T04:19:17.316Z,101009.02
2022-10-23T04:21:45.048Z,101009.73
2022-10-23T04:24:13.064Z,101005.39
2022-10-23T04:26:40.832Z,101006.46
2022-10-23T04:29:10.958Z,101004.07
2022-10-23T04:31:38.590Z,101000.59
2022-10-23T04:36:38.825Z,101000.92
2022-10-23T04:39:10.745Z,101006.60
2022-10-23T04:41:41.838Z,101011.31
2022-10-23T04:44:09.488Z,101015.05
2022-10-23T04:46:39.461Z,101015.09
2022-10-23T04:49:07.730Z,101018.09
2022-10-23T04:51:51.216Z,101022.02
2022-10-23T04:54:38.517Z,101022.55
2022-10-23T04:57:26.568Z,101018.52
2022-10-23T04:59:59.220Z,101019.23
2022-10-23T05:02:27.873Z,101023.06
2022-10-23T05:04:55.720Z,101023.23
2022-10-23T05:07:36.164Z,101026.79
2022-10-23T05:10:12.510Z,101031.54
2022-10-23T05:12:50.775Z,101035.20
2022-10-23T05:15:18.486Z,101037.48
2022-10-23T05:17:48.220Z,101042.55
2022-10-23T05:20:18.463Z,101045.77
2022-10-23T05:22:47.374Z,101049.68
2022-10-23T05:25:15.352Z,101040.02
2022-10-23T05:27:49.313Z,101039.52
2022-10-23T05:30:17.563Z,101039.52
2022-10-23T05:32:45.799Z,101043.23
2022-10-23T05:35:17.390Z,101039.85
2022-10-23T05:37:50.024Z,101039.84
2022-10-23T05:40:24.073Z,101039.29
2022-10-23T05:42:57.529Z,101039.81
2022-10-23T05:45:43.981Z,101045.23
2022-10-23T05:48:35.207Z,101048.42
2022-10-23T05:51:39.498Z,101048.60
2022-10-23T05:54:22.399Z,101047.55
2022-10-23T05:59:49.273Z,101047.67
2022-10-23T06:02:24.644Z,101051.50
2022-10-23T06:05:00.164Z,101053.17
2022-10-23T06:07:50.662Z,101054.59
2022-10-23T06:10:19.647Z,101050.77
2022-10-23T06:12:48.374Z,101049.88
2022-10-23T06:15:17.811Z,101046.41
2022-10-23T06:18:02.230Z,101042.92
2022-10-23T06:20:31.593Z,101042.62
2022-10-23T06:23:09.830Z,101045.95
2022-10-23T06:25:58.853Z,101048.94
2022-10-23T06:28:32.981Z,101044.64
2022-10-23T06:31:04.197Z,101043.42
2022-10-23T06:33:31.856Z,101046.86
2022-10-23T06:35:59.592Z,101046.48
2022-10-23T06:38:27.349Z,101043.46
2022-10-23T06:40:56.795Z,101048.17
2022-10-23T06:43:34.315Z,101048.79
2022-10-23T06:46:13.917Z,101051.32
2022-10-23T06:49:17.565Z,101051.09
2022-10-23T06:51:47.896Z,101047.35
2022-10-23T06:54:17.822Z,101049.98
2022-10-23T06:56:51.480Z,101051.73
2022-10-23T06:59:23.097Z,101050.98
2022-10-23T07:01:52.622Z,101051.41
2022-10-23T07:04:20.690Z,101053.14
2022-10-23T07:06:48.616Z,101054.33
2022-10-23T07:09:16.894Z,101054.52
2022-10-23T07:12:07.305Z,101054.36
2022-10-23T07:14:42.671Z,101053.04
2022-10-23T07:17:10.524Z,101053.52
2022-10-23T07:19:39.217Z,101056.08
2022-10-23T07:22:15.835Z,101053.82
2022-10-23T07:25:10.294Z,101059.52
2022-10-23T07:27:39.860Z,101058.70
2022-10-23T07:30:09.959Z,101059.58
2022-10-23T07:32:50.425Z,101059.07
2022-10-23T07:35:41.340Z,101058.11
2022-10-23T07:38:13.941Z,101061.12
2022-10-23T07:40:48.099Z,101065.90
2022-10-23T07:43:18.769Z,101067.48
2022-10-23T07:45:48.440Z,101072.37
2022-10-23T07:48:24.881Z,101081.80
2022-10-23T07:51:01.611Z,101086.31
2022-10-23T07:53:29.897Z,101092.95
2022-10-23T07:56:17.402Z,101090.55
2022-10-23T07:59:14.372Z,101088.63
2022-10-23T08:01:43.964Z,101095.15
2022-10-23T08:04:12.436Z,101093.68
2022-10-23T08:06:47.312Z,101094.66
2022-10-23T08:09:15.118Z,101095.16
2022-10-23T08:11:43.146Z,101093.98
2022-10-23T08:14:12.370Z,101092.77
2022-10-23T08:16:40.506Z,101098.95
2022-10-23T08:19:17.512Z,101101.16
2022-10-23T08:21:46.355Z,101102.73
2022-10-23T08:24:14.676Z,101106.48
2022-10-23T08:26:44.618Z,101109.17
2022-10-23T08:29:12.985Z,101112.80
2022-10-23T08:31:41.394Z,101113.34
2022-10-23T08:34:42.095Z,101110.49
2022-10-23T08:37:10.092Z,101110.27
2022-10-23T08:39:37.892Z,101113.09
2022-10-23T08:45:19.421Z,101108.80
2022-10-23T08:47:55.901Z,101105.45
2022-10-23T08:50:59.709Z,101101.14
2022-10-23T08:53:46.994Z,101099.96
2022-10-23T08:56:24.580Z,101098.77
2022-10-23T08:59:20.639Z,101104.60
2022-10-23T09:01:58.736Z,101104.76
2022-10-23T09:04:26.716Z,101109.04
2022-10-23T09:09:45.353Z,101104.17
2022-10-23T09:12:26.143Z,101111.70
2022-10-23T09:15:23.314Z,101116.41
2022-10-23T09:18:08.009Z,101119.33
2022-10-23T09:20:36.455Z,101118.04
2022-10-23T09:23:17.704Z,101120.45
2022-10-23T09:25:47.763Z,101122.19
2022-10-23T09:28:21.308Z,101121.03
2022-10-23T09:30:50.476Z,101122.21
2022-10-23T09:33:24.742Z,101127.66
2022-10-23T09:35:59.213Z,101128.26
2022-10-23T09:38:34.818Z,101130.45
2022-10-23T09:41:36.567Z,101131.71
2022-10-23T09:44:07.426Z,101138.27
2022-10-23T09:46:42.558Z,101141.77
2022-10-23T09:49:30.797Z,101137.34
2022-10-23T09:52:01.575Z,101133.39
2022-10-23T09:54:37.206Z,101135.13
2022-10-23T09:57:22.261Z,101131.73
2022-10-23T09:59:56.373Z,101127.20
2022-10-23T10:02:33.189Z,101125.10
2022-10-23T10:05:27.473Z,101123.90
2022-10-23T10:08:24.796Z,101123.29
2022-10-23T10:11:04.847Z,101127.02
2022-10-23T10:13:32.672Z,101127.99
2022-10-23T10:16:03.954Z,101125.13
2022-10-23T10:18:49.286Z,101116.05
2022-10-23T10:21:29.007Z,101113.21
2022-10-23T10:23:56.887Z,101117.88
2022-10-23T10:26:53.156Z,101114.56
2022-10-23T10:29:44.329Z,101111.77
2022-10-23T10:32:17.609Z,101105.90
2022-10-23T10:35:00.634Z,101107.65
2022-10-23T10:38:03.233Z,101108.69
2022-10-23T10:40:38.439Z,101108.07
2022-10-23T10:43:18.625Z,101102.03
2022-10-23T10:49:00.390Z,101097.36
2022-10-23T10:51:47.442Z,101096.27
2022-10-23T10:55:12.850Z,101090.92
2022-10-23T10:57:45.735Z,101088.98
2022-10-23T11:00:20.814Z,101085.60
2022-10-23T11:03:02.914Z,101086.54
2022-10-23T11:05:47.000Z,101084.50
2022-10-23T11:08:28.233Z,101079.13
2022-10-23T11:11:03.119Z,101076.86
2022-10-23T11:13:42.690Z,101076.45
2022-10-23T11:16:15.684Z,101072.83
2022-10-23T11:18:50.605Z,101070.17
2022-10-23T11:21:40.763Z,101069.48
2022-10-23T11:24:54.571Z,101059.77
2022-10-23T11:27:47.744Z,101056.67
2022-10-23T11:30:57.295Z,101052.61
2022-10-23T11:33:56.267Z,101049.46
2022-10-23T11:36:49.570Z,101048.52
2022-10-23T11:39:26.464Z,101048.69
2022-10-23T11:42:15.854Z,101046.06
2022-10-23T11:44:48.608Z,101039.50
2022-10-23T11:47:38.891Z,101039.61
2022-10-23T11:50:07.261Z,101032.85
2022-10-23T11:52:50.391Z,101034.76
2022-10-23T11:55:27.428Z,101028.12
2022-10-23T11:58:07.332Z,101030.18
2022-10-23T12:00:40.906Z,101025.77
2022-10-23T12:03:22.760Z,101023.40
2022-10-23T12:06:00.659Z,101010.88
2022-10-23T12:08:32.547Z,101007.08
2022-10-23T12:11:00.632Z,101004.73
2022-10-23T12:13:37.757Z,101008.83
2022-10-23T12:16:10.015Z,101010.63
2022-10-23T12:18:49.447Z,101004.20
2022-10-23T12:21:21.201Z,101010.71
2022-10-23T12:24:22.720Z,101015.81
2022-10-23T12:27:04.576Z,101018.48
2022-10-23T12:30:13.130Z,101016.44
2022-10-23T12:33:03.185Z,101011.75
2022-10-23T12:35:53.204Z,101002.98
2022-10-23T12:38:33.844Z,100996.65
2022-10-23T12:41:15.156Z,100979.73
2022-10-23T12:43:53.763Z,100972.29
2022-10-23T12:46:39.959Z,100971.95
2022-10-23T12:49:18.784Z,100975.61
2022-10-23T12:52:01.735Z,100979.36
2022-10-23T12:54:38.560Z,100973.60
2022-10-23T12:57:30.635Z,100972.59
2022-10-23T13:00:04.794Z,100975.10
2022-10-23T13:02:35.013Z,100972.21
2022-10-23T13:05:08.221Z,100970.52
2022-10-23T13:07:44.875Z,100971.78
2022-10-23T13:10:16.798Z,100972.99
2022-10-23T13:13:06.019Z,100970.20
2022-10-23T13:15:40.080Z,100967.95
2022-10-23T13:18:10.201Z,100959.41
2022-10-23T13:20:43.062Z,100948.74
2022-10-23T13:23:34.315Z,100943.30
2022-10-23T13:26:03.378Z,100946.23
2022-10-23T13:28:42.402Z,100948.54
2022-10-23T13:31:10.181Z,100949.25
2022-10-23T13:33:40.789Z,100942.26
2022-10-23T13:36:15.072Z,100942.30
2022-10-23T13:39:02.412Z,100945.94
2022-10-23T13:41:37.647Z,100951.30
2022-10-23T13:44:05.967Z,100951.55
2022-10-23T13:46:33.840Z,100950.62
2022-10-23T13:49:01.945Z,100949.20
2022-10-23T13:51:33.571Z,100948.41
2022-10-23T13:54:01.634Z,100944.77
2022-10-23T13:56:29.788Z,100939.80
2022-10-23T13:58:57.727Z,100939.83
2022-10-23T14:01:33.026Z,100937.45
2022-10-23T14:04:00.994Z,100940.92
2022-10-23T14:06:28.852Z,100935.96
2022-10-23T14:08:57.440Z,100938.55
2022-10-23T14:11:25.667Z,100935.70
2022-10-23T14:13:53.470Z,100937.37
2022-10-23T14:16:21.759Z,100937.41
2022-10-23T14:18:49.929Z,100936.41
2022-10-23T14:21:22.639Z,100933.27
2022-10-23T14:23:52.218Z,100931.80
2022-10-23T14:26:23.629Z,100929.30
2022-10-23T14:28:56.903Z,100925.83
2022-10-23T14:31:27.034Z,100926.64
2022-10-23T14:34:00.884Z,100927.77
2022-10-23T14:36:38.520Z,100923.42
2022-10-23T14:39:17.471Z,100918.70
2022-10-23T14:41:45.240Z,100916.48
2022-10-23T14:44:13.130Z,100916.59
2022-10-23T14:46:41.000Z,100907.65
2022-10-23T14:49:08.961Z,100899.32
2022-10-23T14:51:36.899Z,100894.91
2022-10-23T14:54:07.275Z,100896.43
2022-10-23T14:56:40.757Z,100902.00
2022-10-23T14:59:10.900Z,100901.98
2022-10-23T15:01:45.069Z,100904.61
2022-10-23T15:04:15.674Z,100906.67
2022-10-23T15:06:44.309Z,100905.33
2022-10-23T15:09:12.162Z,100906.50
2022-10-23T15:11:39.966Z,100906.89
2022-10-23T15:14:08.421Z,100906.34
2022-10-23T15:16:41.535Z,100907.16
2022-10-23T15:19:15.468Z,100907.48
2022-10-23T15:21:47.875Z,100909.00
2022-10-23T15:24:17.449Z,100906.21
2022-10-23T15:26:45.510Z,100902.18
2022-10-23T15:29:15.020Z,100908.55
2022-10-23T15:32:03.498Z,100908.72
2022-10-23T15:34:32.654Z,100908.17
2022-10-23T15:37:01.938Z,100907.70
2022-10-23T15:39:35.724Z,100906.58
2022-10-23T15:42:05.578Z,100904.20
2022-10-23T15:44:33.964Z,100903.56
2022-10-23T15:47:01.846Z,100902.72
2022-10-23T15:49:30.079Z,100906.20
2022-10-23T15:51:58.673Z,100902.13
2022-10-23T15:54:30.542Z,100897.50
2022-10-23T15:57:02.545Z,100895.90
2022-10-23T15:59:32.455Z,100897.20
2022-10-23T16:02:00.662Z,100893.29
2022-10-23T16:04:28.816Z,100892.30
2022-10-23T16:06:56.973Z,100890.00
2022-10-23T16:09:24.816Z,100893.80
2022-10-23T16:11:52.621Z,100889.98
2022-10-23T16:14:21.290Z,100889.98
2022-10-23T16:16:49.151Z,100889.32
2022-10-23T16:19:17.187Z,100890.91
2022-10-23T16:21:44.999Z,100888.73
2022-10-23T16:24:12.870Z,100888.55
2022-10-23T16:26:40.726Z,100895.90
2022-10-23T16:29:10.024Z,100893.66
2022-10-23T16:31:38.060Z,100891.02
2022-10-23T16:34:07.182Z,100890.90
2022-10-23T16:36:35.312Z,100896.48
2022-10-23T16:39:07.657Z,100894.44
2022-10-23T16:41:54.318Z,100893.50
2022-10-23T16:44:24.606Z,100898.19
2022-10-23T16:47:00.260Z,100904.24
2022-10-23T16:49:29.930Z,100901.20
2022-10-23T16:51:58.280Z,100901.82
2022-10-23T16:54:26.143Z,100897.19
2022-10-23T16:56:54.054Z,100892.80
2022-10-23T16:59:21.849Z,100891.38
2022-10-23T17:01:49.780Z,100890.70
2022-10-23T17:04:17.741Z,100892.59
2022-10-23T17:06:45.611Z,100890.05
2022-10-23T17:09:13.466Z,100889.89
2022-10-23T17:11:44.251Z,100887.53
2022-10-23T17:14:18.228Z,100888.79
2022-10-23T17:16:48.571Z,100886.91
2022-10-23T17:19:40.039Z,100885.58
2022-10-23T17:22:12.678Z,100884.91
2022-10-23T17:24:42.178Z,100886.48
2022-10-23T17:27:10.003Z,100890.64
2022-10-23T17:29:38.507Z,100891.95
2022-10-23T17:32:06.452Z,100893.54
2022-10-23T17:34:34.592Z,100895.04
2022-10-23T17:37:02.628Z,100891.31
2022-10-23T17:39:30.616Z,100892.70
2022-10-23T17:41:58.487Z,100890.93
2022-10-23T17:44:26.295Z,100888.07
2022-10-23T17:46:55.331Z,100883.18
2022-10-23T17:49:24.593Z,100885.51
2022-10-23T17:51:55.138Z,100884.02
2022-10-23T17:54:25.050Z,100879.52
2022-10-23T17:56:53.134Z,100877.73
2022-10-23T17:59:22.108Z,100874.82
2022-10-23T18:01:50.387Z,100870.05
2022-10-23T18:04:20.871Z,100865.61
2022-10-23T18:06:52.635Z,100866.88
2022-10-23T18:09:22.624Z,100862.50
2022-10-23T18:11:51.842Z,100861.42
2022-10-23T18:14:21.593Z,100859.19
2022-10-23T18:16:52.603Z,100854.41
2022-10-23T18:19:20.717Z,100854.31
2022-10-23T18:21:49.250Z,100844.47
2022-10-23T18:24:18.113Z,100841.94
2022-10-23T18:26:48.278Z,100841.66
2022-10-23T18:29:17.779Z,100842.16
2022-10-23T18:31:48.223Z,100827.90
2022-10-23T18:34:22.780Z,100826.23
2022-10-23T18:36:53.286Z,100820.70
2022-10-23T18:39:24.203Z,100817.08
2022-10-23T18:41:54.820Z,100821.92
2022-10-23T18:44:24.474Z,100813.32
2022-10-23T18:46:52.414Z,100807.55
2022-10-23T18:49:20.492Z,100804.05
2022-10-23T18:51:49.957Z,100802.00
2022-10-23T18:54:20.425Z,100794.56
2022-10-23T18:56:49.541Z,100793.84
2022-10-23T18:59:19.572Z,100787.34
2022-10-23T19:01:48.029Z,100781.71
2022-10-23T19:04:18.061Z,100783.00
2022-10-23T19:06:47.658Z,100780.94
2022-10-23T19:09:16.351Z,100778.95
2022-10-23T19:11:45.375Z,100782.89
2022-10-23T19:14:13.174Z,100780.03
2022-10-23T19:16:55.981Z,100782.35
2022-10-23T19:19:27.686Z,100783.80
2022-10-23T19:21:56.454Z,100787.70
2022-10-23T19:24:32.065Z,100787.05
2022-10-23T19:27:01.994Z,100787.93
2022-10-23T19:29:30.627Z,100785.27
2022-10-23T19:31:59.049Z,100785.48
2022-10-23T19:34:26.849Z,100779.30
2022-10-23T19:36:55.096Z,100778.14
2022-10-23T19:39:23.506Z,100778.83
2022-10-23T19:41:51.825Z,100779.36
2022-10-23T19:44:20.562Z,100776.27
2022-10-23T19:46:48.744Z,100777.23
2022-10-23T19:49:17.546Z,100777.98
2022-10-23T19:51:50.881Z,100775.93
2022-10-23T19:54:21.069Z,100774.33
2022-10-23T19:56:49.537Z,100772.30
2022-10-23T19:59:17.986Z,100770.73
2022-10-23T20:01:48.173Z,100769.18
2022-10-23T20:04:18.588Z,100773.17
2022-10-23T20:06:47.329Z,100770.52
2022-10-23T20:09:15.759Z,100759.77
2022-10-23T20:11:45.338Z,100757.72
2022-10-23T20:14:13.663Z,100751.47
2022-10-23T20:16:44.902Z,100748.64
2022-10-23T20:21:49.666Z,100764.51
2022-10-23T20:24:19.491Z,100772.70
2022-10-23T20:26:53.612Z,100772.58
2022-10-23T20:29:22.398Z,100772.53
2022-10-23T20:31:50.235Z,100763.80
2022-10-23T20:34:19.243Z,100757.17
2022-10-23T20:36:49.449Z,100760.81
2022-10-23T20:39:20.828Z,100761.69
2022-10-23T20:41:48.627Z,100757.02
2022-10-23T20:44:18.432Z,100752.45
2022-10-23T20:46:46.557Z,100744.89
2022-10-23T20:49:14.957Z,100734.57
2022-10-23T20:51:42.879Z,100732.86
2022-10-23T20:54:10.878Z,100731.40
2022-10-23T20:56:39.874Z,100728.96
2022-10-23T20:59:11.371Z,100728.48
2022-10-23T21:01:45.281Z,100727.69
2022-10-23T21:04:14.008Z,100725.60
2022-10-23T21:07:04.456Z,100722.20
2022-10-23T21:09:31.006Z,100715.11
2022-10-23T21:11:58.756Z,100711.50
2022-10-23T21:14:27.309Z,100706.86
2022-10-23T21:16:55.074Z,100711.45
2022-10-23T21:19:22.912Z,100703.86
2022-10-23T21:21:50.950Z,100700.50
2022-10-23T21:24:18.864Z,100698.86
2022-10-23T21:26:46.873Z,100698.14
2022-10-23T21:29:19.438Z,100702.52
2022-10-23T21:31:52.837Z,100700.60
2022-10-23T21:34:20.618Z,100697.68
2022-10-23T21:37:11.230Z,100694.29
2022-10-23T21:39:36.774Z,100699.17
2022-10-23T21:42:04.611Z,100701.58
2022-10-23T21:44:32.357Z,100698.98
2022-10-23T21:47:00.053Z,100698.85
2022-10-23T21:49:27.867Z,100695.98
2022-10-23T21:51:55.599Z,100689.91
2022-10-23T21:54:23.309Z,100686.96
2022-10-23T21:56:53.621Z,100688.90
2022-10-23T21:59:27.685Z,100679.70
2022-10-23T22:01:58.157Z,100681.64
2022-10-23T22:04:26.034Z,100681.84
2022-10-23T22:06:53.906Z,100680.63
2022-10-23T22:09:22.018Z,100676.41
2022-10-23T22:11:54.207Z,100669.79
2022-10-23T22:14:23.885Z,100660.73
2022-10-23T22:16:52.318Z,100661.05
2022-10-23T22:19:22.261Z,100669.83
2022-10-23T22:21:51.348Z,100668.44
2022-10-23T22:24:19.779Z,100674.95
2022-10-23T22:26:51.204Z,100677.67
2022-10-23T22:29:22.586Z,100671.64
2022-10-23T22:31:51.008Z,100667.13
2022-10-23T22:34:28.726Z,100662.28
2022-10-23T22:37:11.408Z,100664.73
2022-10-23T22:39:40.282Z,100665.09
2022-10-23T22:42:08.728Z,100661.56
2022-10-23T22:44:36.460Z,100658.80
2022-10-23T22:47:04.585Z,100648.70
2022-10-23T22:49:32.369Z,100641.52
2022-10-23T22:52:00.416Z,100639.77
2022-10-23T22:54:30.583Z,100633.70
2022-10-23T22:56:58.438Z,100636.33
2022-10-23T22:59:26.320Z,100631.02
2022-10-23T23:01:54.557Z,100628.59
2022-10-23T23:04:38.929Z,100633.44
2022-10-23T23:07:10.120Z,100635.77
2022-10-23T23:09:43.684Z,100628.83
2022-10-23T23:12:14.041Z,100630.08
2022-10-23T23:14:42.691Z,100631.27
2022-10-23T23:17:10.748Z,100633.07
2022-10-23T23:19:39.388Z,100637.91
2022-10-23T23:22:07.146Z,100639.05
2022-10-23T23:24:35.000Z,100644.89
2022-10-23T23:27:02.832Z,100643.02
2022-10-23T23:29:32.017Z,100635.25
2022-10-23T23:31:59.774Z,100630.79
2022-10-23T23:34:27.556Z,100627.63
2022-10-23T23:36:55.268Z,100620.95
2022-10-23T23:39:23.008Z,100620.91
2022-10-23T23:41:50.805Z,100625.29
2022-10-23T23:44:18.512Z,100627.16
2022-10-23T23:46:46.237Z,100633.44
2022-10-23T23:49:13.938Z,100632.80
2022-10-23T23:51:42.052Z,100630.45
2022-10-23T23:54:09.999Z,100630.95
2022-10-23T23:56:38.159Z,100630.15
2022-10-23T23:59:05.935Z,100628.98
